Terminal Aerodrome Forecast
Issued by NWS Grand Junction, CO

Home | Current Version | Previous Version | Text Only | Print | Product List | Glossary On
Versions: 1 2 3 4 5 6 7 8 9 10 11 12
000
FTUS45 KGJT 272325
TAFGJT
TAF
KGJT 272325Z 2800/2824 30009KT P6SM FEW200
     FM280300 02005KT P6SM SKC
     FM280600 09004KT P6SM FEW250
     FM281300 12008KT P6SM FEW250
     FM281900 18005KT P6SM SCT250
     FM282100 26007KT P6SM SCT250=

USA.gov is the U.S. government's official web portal to all federal, state and local government web resources and services.